East Meadow, New York
Current Conditions -  °F | °C
As of 12:53 PM on Saturday 22 Nov 2014 (Local Time) from KFRG Reporting Station
Clear Clear  
Wind Chill: 35°   Ceiling: Unl
Heat Index: 42°   Visibility: 10mi
Dew Point: 16°   Wind: 13mph
Humidity: 35%   Direction: 230°SW
Pressure: 30.35"   Gusts: NA
Location:  40.71°N, 73.54°W
Report Text: KFRG 221753Z 23011KT 10SM CLR 06/M09 A3035 RMK AO2 SLP278 T00561089 10056 21028 58036
Loading
Personal Weather Stations






























Interactive Weather Map New forecast layout! Learn more

10-Day Weather Forecast

Advertisements
Track Severe Weather on mobile